createdAt,value
2019-04-10T00:01:59.373Z,28.17
2019-04-10T00:04:28.154Z,29.10
2019-04-10T00:07:10.414Z,29.73
2019-04-10T00:09:27.388Z,30.77
2019-04-10T00:11:56.711Z,28.87
2019-04-10T00:14:26.080Z,29.37
2019-04-10T00:16:54.340Z,27.80
2019-04-10T00:19:22.492Z,29.13
2019-04-10T00:21:50.586Z,29.80
2019-04-10T00:24:18.642Z,29.50
2019-04-10T00:26:46.685Z,28.47
2019-04-10T00:29:14.734Z,29.93
2019-04-10T00:31:42.802Z,30.97
2019-04-10T00:34:11.587Z,31.30
2019-04-10T00:36:39.690Z,30.37
2019-04-10T00:39:08.624Z,30.03
2019-04-10T00:41:36.775Z,31.27
2019-04-10T00:44:05.772Z,31.07
2019-04-10T00:46:35.127Z,30.80
2019-04-10T00:49:03.175Z,31.53
2019-04-10T00:51:31.218Z,32.17
2019-04-10T00:53:59.378Z,30.67
2019-04-10T00:56:28.337Z,30.23
2019-04-10T00:58:56.441Z,29.47
2019-04-10T01:01:24.698Z,30.27
2019-04-10T01:03:53.833Z,30.53
2019-04-10T01:06:22.389Z,28.40
2019-04-10T01:08:51.041Z,30.13
2019-04-10T01:11:19.098Z,30.23
2019-04-10T01:13:47.423Z,29.00
2019-04-10T01:16:16.453Z,26.97
2019-04-10T01:18:45.705Z,29.00
2019-04-10T01:21:14.481Z,27.47
2019-04-10T01:23:42.530Z,27.70
2019-04-10T01:26:10.763Z,26.70
2019-04-10T01:28:38.867Z,24.37
2019-04-10T01:31:06.930Z,25.77
2019-04-10T01:33:35.009Z,25.67
2019-04-10T01:36:03.137Z,24.43
2019-04-10T01:38:31.195Z,22.80
2019-04-10T01:40:59.442Z,23.40
2019-04-10T01:43:27.812Z,23.13
2019-04-10T01:45:55.918Z,23.60
2019-04-10T01:48:23.962Z,23.50
2019-04-10T01:50:52.867Z,22.10
2019-04-10T01:53:21.775Z,21.70
2019-04-10T01:55:49.853Z,22.37
2019-04-10T01:58:19.610Z,20.90
2019-04-10T02:00:56.298Z,21.83
2019-04-10T02:03:24.427Z,21.53
2019-04-10T02:05:52.670Z,21.47
2019-04-10T02:08:21.518Z,20.63
2019-04-10T02:10:50.154Z,19.70
2019-04-10T02:13:19.152Z,19.40
2019-04-10T02:15:47.403Z,19.67
2019-04-10T02:18:15.458Z,19.77
2019-04-10T02:20:43.602Z,18.27
2019-04-10T02:23:12.243Z,17.80
2019-04-10T02:25:41.069Z,19.00
2019-04-10T02:28:09.217Z,19.23
2019-04-10T02:30:43.138Z,17.47
2019-04-10T02:33:10.770Z,18.10
2019-04-10T02:35:40.047Z,16.67
2019-04-10T02:38:28.386Z,17.17
2019-04-10T02:40:39.227Z,15.97
2019-04-10T02:43:08.370Z,16.97
2019-04-10T02:45:38.811Z,16.67
2019-04-10T02:48:08.037Z,14.83
2019-04-10T02:50:37.287Z,16.47
2019-04-10T02:53:05.640Z,14.63
2019-04-10T02:55:35.564Z,14.97
2019-04-10T02:58:05.820Z,15.40
2019-04-10T03:00:34.010Z,15.63
2019-04-10T03:03:05.382Z,14.73
2019-04-10T03:05:34.615Z,15.10
2019-04-10T03:08:04.938Z,15.43
2019-04-10T03:10:41.303Z,15.03
2019-04-10T03:13:04.607Z,15.23
2019-04-10T03:15:33.792Z,14.40
2019-04-10T03:18:02.070Z,14.80
2019-04-10T03:20:30.183Z,15.80
2019-04-10T03:22:58.812Z,15.13
2019-04-10T03:25:26.878Z,15.10
2019-04-10T03:27:54.938Z,14.83
2019-04-10T03:30:23.918Z,15.83
2019-04-10T03:32:58.100Z,14.73
2019-04-10T03:35:27.773Z,14.43
2019-04-10T03:37:55.822Z,14.93
2019-04-10T03:40:23.875Z,13.77
2019-04-10T03:42:52.948Z,13.87
2019-04-10T03:45:22.332Z,13.43
2019-04-10T03:47:51.462Z,13.23
2019-04-10T03:50:19.620Z,14.50
2019-04-10T03:52:47.674Z,13.60
2019-04-10T03:55:16.652Z,13.17
2019-04-10T03:57:44.887Z,13.83
2019-04-10T04:00:14.062Z,15.13
2019-04-10T04:02:42.240Z,14.57
2019-04-10T04:05:10.628Z,14.03
2019-04-10T04:07:38.909Z,15.60
2019-04-10T04:10:07.081Z,13.30
2019-04-10T04:12:35.134Z,14.23
2019-04-10T04:15:03.732Z,13.80
2019-04-10T04:17:32.534Z,13.33
2019-04-10T04:20:00.587Z,14.43
2019-04-10T04:22:28.633Z,13.97
2019-04-10T04:24:56.700Z,13.80
2019-04-10T04:27:25.036Z,13.53
2019-04-10T04:29:53.107Z,13.73
2019-04-10T04:32:21.778Z,12.63
2019-04-10T04:34:49.891Z,13.43
2019-04-10T04:37:18.728Z,14.13
2019-04-10T04:39:47.734Z,13.80
2019-04-10T04:42:16.944Z,13.70
2019-04-10T04:44:45.423Z,13.73
2019-04-10T04:47:13.502Z,13.40
2019-04-10T04:49:42.089Z,14.30
2019-04-10T04:52:11.804Z,13.27
2019-04-10T04:54:39.974Z,13.40
2019-04-10T04:57:08.625Z,13.60
2019-04-10T04:59:36.679Z,13.60
2019-04-10T05:02:05.875Z,13.73
2019-04-10T05:04:34.114Z,14.20
2019-04-10T05:07:02.181Z,13.43
2019-04-10T05:09:35.629Z,13.90
2019-04-10T05:12:00.665Z,14.40
2019-04-10T05:14:29.443Z,13.53
2019-04-10T05:16:57.575Z,14.33
2019-04-10T05:19:25.709Z,14.33
2019-04-10T05:21:54.002Z,14.80
2019-04-10T05:24:22.114Z,13.90
2019-04-10T05:26:51.157Z,14.40
2019-04-10T05:29:19.662Z,14.80
2019-04-10T05:31:48.871Z,13.57
2019-04-10T05:34:17.779Z,14.73
2019-04-10T05:36:46.921Z,13.33
2019-04-10T05:39:15.111Z,15.57
2019-04-10T05:41:44.017Z,14.77
2019-04-10T05:44:12.115Z,14.23
2019-04-10T05:46:40.926Z,14.70
2019-04-10T05:49:09.006Z,14.37
2019-04-10T05:51:37.469Z,14.40
2019-04-10T05:54:06.431Z,13.73
2019-04-10T05:56:34.587Z,14.27
2019-04-10T05:59:02.998Z,14.80
2019-04-10T06:01:37.127Z,14.37
2019-04-10T06:04:03.088Z,14.63
2019-04-10T06:06:31.171Z,14.60
2019-04-10T06:09:00.356Z,14.47
2019-04-10T06:11:28.859Z,14.20
2019-04-10T06:13:57.019Z,14.63
2019-04-10T06:16:26.083Z,14.90
2019-04-10T06:18:54.186Z,14.07
2019-04-10T06:21:23.091Z,15.30
2019-04-10T06:23:51.798Z,14.97
2019-04-10T06:26:20.050Z,15.20
2019-04-10T06:28:48.541Z,14.80
2019-04-10T06:31:16.665Z,15.80
2019-04-10T06:33:44.698Z,15.10
2019-04-10T06:36:13.255Z,15.10
2019-04-10T06:38:41.360Z,14.97
2019-04-10T06:41:10.465Z,14.53
2019-04-10T06:43:39.231Z,14.80
2019-04-10T06:46:08.332Z,15.30
2019-04-10T06:48:36.467Z,15.97
2019-04-10T06:51:06.025Z,14.60
2019-04-10T06:53:35.195Z,15.67
2019-04-10T06:56:03.499Z,16.30
2019-04-10T06:58:31.901Z,14.50
2019-04-10T07:01:01.564Z,15.13
2019-04-10T07:03:46.990Z,15.13
2019-04-10T07:06:07.683Z,14.90
2019-04-10T07:08:29.749Z,15.50
2019-04-10T07:11:04.711Z,15.07
2019-04-10T07:13:28.100Z,14.07
2019-04-10T07:15:58.134Z,14.57
2019-04-10T07:18:26.378Z,15.00
2019-04-10T07:20:59.273Z,16.33
2019-04-10T07:23:28.823Z,15.77
2019-04-10T07:25:54.970Z,14.37
2019-04-10T07:28:23.808Z,15.33
2019-04-10T07:30:52.041Z,16.03
2019-04-10T07:33:21.080Z,14.70
2019-04-10T07:35:49.970Z,15.40
2019-04-10T07:38:19.881Z,15.77
2019-04-10T07:40:49.028Z,14.73
2019-04-10T07:43:20.737Z,14.87
2019-04-10T07:45:46.972Z,16.10
2019-04-10T07:48:15.016Z,14.57
2019-04-10T07:50:45.350Z,15.10
2019-04-10T07:53:12.882Z,15.53
2019-04-10T07:55:42.069Z,13.77
2019-04-10T07:58:11.017Z,15.33
2019-04-10T08:00:39.171Z,14.63
2019-04-10T08:03:08.230Z,15.53
2019-04-10T08:05:37.496Z,14.90
2019-04-10T08:08:05.986Z,14.83
2019-04-10T08:10:34.841Z,14.30
2019-04-10T08:13:02.899Z,14.57
2019-04-10T08:15:31.562Z,14.80
2019-04-10T08:18:00.415Z,14.23
2019-04-10T08:20:28.595Z,14.57
2019-04-10T08:22:57.388Z,14.17
2019-04-10T08:25:27.001Z,14.67
2019-04-10T08:27:55.086Z,13.93
2019-04-10T08:30:24.012Z,15.27
2019-04-10T08:32:59.596Z,14.43
2019-04-10T08:35:22.978Z,14.77
2019-04-10T08:37:51.107Z,14.23
2019-04-10T08:40:19.210Z,14.00
2019-04-10T08:42:47.628Z,13.70
2019-04-10T08:45:16.779Z,13.47
2019-04-10T08:47:45.824Z,13.80
2019-04-10T08:50:14.268Z,13.47
2019-04-10T08:52:42.322Z,13.20
2019-04-10T08:55:10.442Z,14.03
2019-04-10T08:57:39.563Z,12.57
2019-04-10T09:00:08.176Z,13.90
2019-04-10T09:02:36.328Z,13.73
2019-04-10T09:05:07.393Z,13.10
2019-04-10T09:07:35.917Z,14.00
2019-04-10T09:10:05.962Z,12.83
2019-04-10T09:12:34.123Z,14.17
2019-04-10T09:15:02.484Z,13.70
2019-04-10T09:17:31.387Z,13.87
2019-04-10T09:20:00.562Z,13.57
2019-04-10T09:22:30.151Z,13.07
2019-04-10T09:24:58.606Z,12.83
2019-04-10T09:27:26.850Z,13.03
2019-04-10T09:29:54.898Z,13.23
2019-04-10T09:32:22.949Z,13.37
2019-04-10T09:34:52.075Z,13.50
2019-04-10T09:37:20.159Z,13.40
2019-04-10T09:39:50.945Z,13.50
2019-04-10T09:42:17.991Z,12.07
2019-04-10T09:44:46.562Z,12.67
2019-04-10T09:47:14.689Z,12.43
2019-04-10T09:49:45.961Z,11.50
2019-04-10T09:52:12.510Z,12.23
2019-04-10T09:54:40.582Z,13.07
2019-04-10T09:57:09.097Z,11.53
2019-04-10T09:59:39.667Z,12.00
2019-04-10T10:02:07.130Z,12.10
2019-04-10T10:04:35.150Z,12.50
2019-04-10T10:07:03.976Z,12.07
2019-04-10T10:09:32.528Z,10.87
2019-04-10T10:12:01.094Z,12.00
2019-04-10T10:14:31.969Z,12.17
2019-04-10T10:17:00.070Z,11.20
2019-04-10T10:19:28.219Z,11.73
2019-04-10T10:21:56.813Z,12.43
2019-04-10T10:24:24.956Z,11.90
2019-04-10T10:26:53.534Z,11.90
2019-04-10T10:29:21.805Z,12.83
2019-04-10T10:31:52.194Z,11.30
2019-04-10T10:34:20.636Z,12.50
2019-04-10T10:36:50.653Z,12.30
2019-04-10T10:39:19.159Z,11.53
2019-04-10T10:41:47.364Z,12.40
2019-04-10T10:44:15.431Z,12.00
2019-04-10T10:46:43.979Z,11.53
2019-04-10T10:49:12.527Z,11.33
2019-04-10T10:51:42.542Z,11.57
2019-04-10T10:54:10.810Z,10.90
2019-04-10T10:56:38.853Z,10.30
2019-04-10T10:59:07.097Z,11.37
2019-04-10T11:01:38.019Z,10.57
2019-04-10T11:04:06.794Z,10.73
2019-04-10T11:06:36.355Z,10.20
2019-04-10T11:09:08.337Z,10.53
2019-04-10T11:11:36.988Z,10.63
2019-04-10T11:14:05.933Z,10.30
2019-04-10T11:16:34.228Z,10.60
2019-04-10T11:19:02.774Z,10.77
2019-04-10T11:21:30.878Z,10.73
2019-04-10T11:23:58.922Z,9.53
2019-04-10T11:26:27.621Z,9.87
2019-04-10T11:28:56.107Z,10.90
2019-04-10T11:31:25.188Z,10.17
2019-04-10T11:33:55.859Z,10.17
2019-04-10T11:36:23.596Z,9.87
2019-04-10T11:38:54.461Z,10.07
2019-04-10T11:41:23.155Z,9.37
2019-04-10T11:43:52.652Z,9.47
2019-04-10T11:46:22.647Z,9.63
2019-04-10T11:48:51.904Z,8.90
2019-04-10T11:51:23.504Z,10.27
2019-04-10T11:53:55.855Z,10.27
2019-04-10T11:56:21.295Z,10.37
2019-04-10T12:01:21.604Z,9.50
2019-04-10T12:03:53.944Z,10.57
2019-04-10T12:06:21.270Z,9.70
2019-04-10T12:09:13.724Z,10.03
2019-04-10T12:11:20.637Z,10.13
2019-04-10T12:13:48.926Z,9.77
2019-04-10T12:16:16.970Z,9.63
2019-04-10T12:18:45.024Z,9.57
2019-04-10T12:21:13.528Z,9.77
2019-04-10T12:23:41.602Z,9.43
2019-04-10T12:26:09.686Z,9.00
2019-04-10T12:28:38.174Z,10.00
2019-04-10T12:31:06.302Z,9.27
2019-04-10T12:33:34.362Z,8.87
2019-04-10T12:36:02.491Z,9.50
2019-04-10T12:38:30.534Z,8.97
2019-04-10T12:40:59.200Z,9.57
2019-04-10T12:43:27.365Z,10.10
2019-04-10T12:45:55.439Z,9.67
2019-04-10T12:48:23.506Z,9.73
2019-04-10T12:50:51.566Z,9.87
2019-04-10T12:53:19.619Z,9.10
2019-04-10T12:55:47.745Z,9.80
2019-04-10T12:58:17.691Z,9.80
2019-04-10T13:00:45.607Z,9.17
2019-04-10T13:03:14.640Z,9.07
2019-04-10T13:05:43.033Z,8.90
2019-04-10T13:08:19.021Z,9.53
2019-04-10T13:10:40.956Z,9.70
2019-04-10T13:13:09.495Z,9.57
2019-04-10T13:15:37.684Z,8.77
2019-04-10T13:18:06.014Z,9.23
2019-04-10T13:20:34.030Z,9.23
2019-04-10T13:23:02.088Z,9.43
2019-04-10T13:25:30.224Z,10.10
2019-04-10T13:27:59.046Z,10.63
2019-04-10T13:30:39.973Z,9.67
2019-04-10T13:32:58.282Z,9.53
2019-04-10T13:35:26.394Z,10.07
2019-04-10T13:37:54.857Z,9.57
2019-04-10T13:40:23.582Z,9.37
2019-04-10T13:42:51.654Z,9.93
2019-04-10T13:45:19.739Z,9.93
2019-04-10T13:47:49.451Z,10.60
2019-04-10T13:50:18.857Z,9.90
2019-04-10T13:52:52.655Z,10.20
2019-04-10T13:55:21.478Z,9.53
2019-04-10T13:57:50.751Z,9.80
2019-04-10T14:00:30.088Z,9.90
2019-04-10T14:02:58.311Z,10.57
2019-04-10T14:05:27.317Z,10.63
2019-04-10T14:07:55.623Z,10.07
2019-04-10T14:10:24.812Z,10.20
2019-04-10T14:12:53.488Z,10.33
2019-04-10T14:15:22.319Z,10.67
2019-04-10T14:17:50.410Z,9.40
2019-04-10T14:20:20.157Z,9.03
2019-04-10T14:22:55.916Z,10.87
2019-04-10T14:25:42.110Z,9.37
2019-04-10T14:28:11.023Z,9.73
2019-04-10T14:30:45.273Z,9.90
2019-04-10T14:33:13.278Z,10.13
2019-04-10T14:35:41.337Z,9.70
2019-04-10T14:38:10.650Z,10.47
2019-04-10T14:40:39.900Z,10.20
2019-04-10T14:43:08.339Z,11.03
2019-04-10T14:45:37.402Z,10.47
2019-04-10T14:48:05.752Z,10.23
2019-04-10T14:50:33.866Z,10.90
2019-04-10T14:53:01.914Z,10.00
2019-04-10T14:55:29.967Z,10.63
2019-04-10T14:57:59.144Z,14.07
2019-04-10T15:00:37.389Z,11.20
2019-04-10T15:03:06.442Z,10.57
2019-04-10T15:05:44.897Z,9.73
2019-04-10T15:08:04.393Z,10.17
2019-04-10T15:10:32.715Z,9.80
2019-04-10T15:13:09.059Z,10.10
2019-04-10T15:15:30.530Z,9.37
2019-04-10T15:17:58.593Z,9.27
2019-04-10T15:20:26.675Z,10.60
2019-04-10T15:22:54.743Z,9.90
2019-04-10T15:25:22.995Z,9.33
2019-04-10T15:27:51.681Z,9.43
2019-04-10T15:30:20.654Z,10.43
2019-04-10T15:32:49.726Z,9.13
2019-04-10T15:35:18.108Z,9.50
2019-04-10T15:37:47.281Z,9.37
2019-04-10T15:40:22.758Z,9.50
2019-04-10T15:42:46.037Z,9.57
2019-04-10T15:45:14.753Z,8.93
2019-04-10T15:47:51.844Z,8.90
2019-04-10T15:50:13.872Z,9.60
2019-04-10T15:52:45.856Z,9.80
2019-04-10T15:55:13.924Z,9.17
2019-04-10T15:57:49.150Z,8.70
2019-04-10T16:00:12.761Z,8.50
2019-04-10T16:02:40.838Z,8.43
2019-04-10T16:05:09.142Z,9.00
2019-04-10T16:07:38.287Z,8.30
2019-04-10T16:10:25.201Z,7.83
2019-04-10T16:12:54.086Z,8.20
2019-04-10T16:15:22.313Z,8.60
2019-04-10T16:18:09.869Z,9.00
2019-04-10T16:20:38.923Z,8.47
2019-04-10T16:23:08.657Z,7.60
2019-04-10T16:25:36.703Z,9.03
2019-04-10T16:28:04.768Z,8.27
2019-04-10T16:30:35.033Z,8.30
2019-04-10T16:33:03.088Z,9.40
2019-04-10T16:35:33.671Z,9.13
2019-04-10T16:38:02.230Z,8.87
2019-04-10T16:40:30.358Z,8.70
2019-04-10T16:42:59.342Z,9.83
2019-04-10T16:45:28.371Z,9.73
2019-04-10T16:47:56.731Z,9.50
2019-04-10T16:50:25.774Z,9.73
2019-04-10T16:52:53.986Z,10.53
2019-04-10T16:55:22.778Z,9.87
2019-04-10T16:57:51.408Z,9.50
2019-04-10T17:00:20.635Z,9.63
2019-04-10T17:02:50.579Z,9.67
2019-04-10T17:05:18.746Z,8.83
2019-04-10T17:07:47.465Z,9.50
2019-04-10T17:10:22.698Z,10.43
2019-04-10T17:12:46.677Z,9.40
2019-04-10T17:15:15.714Z,9.23
2019-04-10T17:17:44.462Z,9.10
2019-04-10T17:20:13.987Z,8.97
2019-04-10T17:22:45.791Z,9.77
2019-04-10T17:25:12.106Z,9.87
2019-04-10T17:27:40.130Z,9.57
2019-04-10T17:30:09.635Z,9.80
2019-04-10T17:32:38.479Z,10.53
2019-04-10T17:35:09.496Z,10.83
2019-04-10T17:37:38.104Z,10.40
2019-04-10T17:40:23.138Z,9.37
2019-04-10T17:42:41.000Z,10.17
2019-04-10T17:45:10.073Z,14.20
2019-04-10T17:47:38.891Z,9.33
2019-04-10T17:50:08.796Z,9.27
2019-04-10T17:52:38.039Z,9.00
2019-04-10T17:55:07.329Z,9.07
2019-04-10T17:57:40.375Z,9.37
2019-04-10T18:00:07.001Z,9.23
2019-04-10T18:02:35.127Z,9.53
2019-04-10T18:05:04.437Z,9.03
2019-04-10T18:07:32.562Z,9.17
2019-04-10T18:10:02.640Z,8.87
2019-04-10T18:12:30.766Z,8.90
2019-04-10T18:14:59.766Z,8.87
2019-04-10T18:17:29.051Z,9.87
2019-04-10T18:19:57.242Z,8.97
2019-04-10T18:22:25.322Z,9.53
2019-04-10T18:24:53.755Z,9.23
2019-04-10T18:27:22.489Z,10.10
2019-04-10T18:29:51.703Z,8.93
2019-04-10T18:32:19.864Z,9.70
2019-04-10T18:34:47.911Z,9.93
2019-04-10T18:37:19.148Z,9.17
2019-04-10T18:39:46.412Z,9.87
2019-04-10T18:42:14.474Z,9.63
2019-04-10T18:44:42.518Z,9.17
2019-04-10T18:47:11.067Z,9.27
2019-04-10T18:49:39.911Z,9.37
2019-04-10T18:52:08.046Z,9.17
2019-04-10T18:54:36.120Z,8.60
2019-04-10T18:57:05.301Z,10.03
2019-04-10T18:59:44.860Z,9.17
2019-04-10T19:02:23.739Z,9.60
2019-04-10T19:05:05.668Z,8.87
2019-04-10T19:07:34.343Z,8.97
2019-04-10T19:10:02.374Z,9.63
2019-04-10T19:12:30.421Z,10.00
2019-04-10T19:14:58.481Z,8.70
2019-04-10T19:17:26.711Z,8.67
2019-04-10T19:19:54.750Z,9.40
2019-04-10T19:22:22.882Z,8.90
2019-04-10T19:24:50.922Z,8.70
2019-04-10T19:27:20.058Z,9.33
2019-04-10T19:29:48.745Z,9.67
2019-04-10T19:32:24.746Z,9.00
2019-04-10T19:34:52.830Z,8.63
2019-04-10T19:37:20.875Z,8.10
2019-04-10T19:39:49.005Z,8.63
2019-04-10T19:42:17.461Z,8.17
2019-04-10T19:44:45.638Z,9.10
2019-04-10T19:47:14.587Z,8.30
2019-04-10T19:49:42.635Z,8.60
2019-04-10T19:52:11.898Z,8.50
2019-04-10T19:54:40.866Z,8.37
2019-04-10T19:57:09.026Z,9.17
2019-04-10T19:59:37.114Z,8.50
2019-04-10T20:02:06.554Z,8.17
2019-04-10T20:04:34.767Z,8.53
2019-04-10T20:07:02.841Z,8.20
2019-04-10T20:09:30.946Z,7.87
2019-04-10T20:12:00.149Z,7.77
2019-04-10T20:14:28.476Z,7.80
2019-04-10T20:16:57.645Z,7.83
2019-04-10T20:19:26.614Z,8.30
2019-04-10T20:21:54.706Z,8.17
2019-04-10T20:24:22.916Z,8.40
2019-04-10T20:26:51.804Z,7.87
2019-04-10T20:29:19.926Z,7.03
2019-04-10T20:31:50.035Z,8.13
2019-04-10T20:34:19.062Z,8.27
2019-04-10T20:36:47.206Z,8.60
2019-04-10T20:39:15.344Z,7.90
2019-04-10T20:41:48.486Z,8.20
2019-04-10T20:44:13.164Z,7.87
2019-04-10T20:46:42.382Z,8.93
2019-04-10T20:49:10.486Z,8.43
2019-04-10T20:51:42.005Z,9.67
2019-04-10T20:54:10.654Z,8.53
2019-04-10T20:56:39.005Z,8.30
2019-04-10T20:59:07.725Z,7.97
2019-04-10T21:01:39.289Z,8.87
2019-04-10T21:04:07.385Z,8.53
2019-04-10T21:06:36.426Z,9.10
2019-04-10T21:09:07.418Z,9.17
2019-04-10T21:11:35.647Z,8.77
2019-04-10T21:14:05.112Z,9.17
2019-04-10T21:16:33.637Z,8.97
2019-04-10T21:19:02.383Z,9.20
2019-04-10T21:21:30.763Z,8.67
2019-04-10T21:23:58.803Z,9.07
2019-04-10T21:26:26.894Z,8.63
2019-04-10T21:28:55.794Z,9.37
2019-04-10T21:31:38.546Z,9.53
2019-04-10T21:34:08.326Z,9.23
2019-04-10T21:36:37.148Z,9.63
2019-04-10T21:39:07.362Z,9.47
2019-04-10T21:41:35.503Z,9.57
2019-04-10T21:44:04.360Z,9.07
2019-04-10T21:46:32.657Z,9.60
2019-04-10T21:49:01.578Z,10.17
2019-04-10T21:51:30.622Z,10.20
2019-04-10T21:53:59.956Z,10.30
2019-04-10T21:56:28.768Z,10.00
2019-04-10T21:58:56.987Z,10.33
2019-04-10T22:01:26.313Z,10.17
2019-04-10T22:03:54.414Z,10.33
2019-04-10T22:06:30.274Z,10.33
2019-04-10T22:09:12.611Z,10.40
2019-04-10T22:11:51.439Z,10.00
2019-04-10T22:14:19.554Z,11.10
2019-04-10T22:16:48.422Z,10.27
2019-04-10T22:19:16.755Z,10.80
2019-04-10T22:21:46.113Z,10.00
2019-04-10T22:24:14.322Z,10.70
2019-04-10T22:26:42.577Z,10.93
2019-04-10T22:29:11.162Z,10.30
2019-04-10T22:31:40.286Z,11.30
2019-04-10T22:34:10.176Z,10.80
2019-04-10T22:36:38.146Z,10.43
2019-04-10T22:39:08.983Z,11.80
2019-04-10T22:41:37.139Z,11.57
2019-04-10T22:44:05.468Z,10.07
2019-04-10T22:46:34.214Z,10.70
2019-04-10T22:49:02.350Z,10.63
2019-04-10T22:51:30.397Z,10.63
2019-04-10T22:53:58.758Z,10.57
2019-04-10T22:56:26.918Z,10.60
2019-04-10T22:58:55.045Z,10.90
2019-04-10T23:01:58.089Z,10.73
2019-04-10T23:04:15.785Z,11.30
2019-04-10T23:06:45.005Z,11.27
2019-04-10T23:09:13.870Z,11.90
2019-04-10T23:11:45.007Z,11.73
2019-04-10T23:14:12.327Z,11.90
2019-04-10T23:16:40.495Z,12.10
2019-04-10T23:19:08.574Z,11.80
2019-04-10T23:21:36.651Z,10.47
2019-04-10T23:24:05.530Z,11.40
2019-04-10T23:26:33.602Z,11.27
2019-04-10T23:32:05.881Z,11.57
2019-04-10T23:34:33.991Z,11.17
2019-04-10T23:37:02.547Z,11.30
2019-04-10T23:39:30.812Z,11.63
2019-04-10T23:41:59.067Z,11.37
2019-04-10T23:44:27.201Z,11.40
2019-04-10T23:46:55.775Z,11.10
2019-04-10T23:49:24.096Z,10.77
2019-04-10T23:51:53.662Z,11.40
2019-04-10T23:54:21.878Z,11.37
2019-04-10T23:56:50.762Z,10.77
2019-04-10T23:59:18.868Z,12.03
